sensor_id;sensor_type;location;lat;lon;timestamp;temperature;humidity
21950;DHT22;11139;51.284;7.226;2023-07-13T00:00:11;21.70;85.90
21950;DHT22;11139;51.284;7.226;2023-07-13T00:02:41;21.70;85.80
21950;DHT22;11139;51.284;7.226;2023-07-13T00:05:06;21.70;86.00
21950;DHT22;11139;51.284;7.226;2023-07-13T00:07:32;21.70;85.90
21950;DHT22;11139;51.284;7.226;2023-07-13T00:09:57;21.70;85.90
21950;DHT22;11139;51.284;7.226;2023-07-13T00:12:29;21.70;86.30
21950;DHT22;11139;51.284;7.226;2023-07-13T00:14:57;21.70;86.30
21950;DHT22;11139;51.284;7.226;2023-07-13T00:17:23;21.70;86.30
21950;DHT22;11139;51.284;7.226;2023-07-13T00:19:49;21.70;86.20
21950;DHT22;11139;51.284;7.226;2023-07-13T00:22:14;21.60;86.40
21950;DHT22;11139;51.284;7.226;2023-07-13T00:24:40;21.60;86.50
21950;DHT22;11139;51.284;7.226;2023-07-13T00:27:10;21.60;86.40
21950;DHT22;11139;51.284;7.226;2023-07-13T00:29:36;21.70;86.30
21950;DHT22;11139;51.284;7.226;2023-07-13T00:32:05;21.60;86.40
21950;DHT22;11139;51.284;7.226;2023-07-13T00:34:31;21.60;86.20
21950;DHT22;11139;51.284;7.226;2023-07-13T00:36:56;21.60;86.40
21950;DHT22;11139;51.284;7.226;2023-07-13T00:39:22;21.60;86.80
21950;DHT22;11139;51.284;7.226;2023-07-13T00:41:48;21.60;86.50
21950;DHT22;11139;51.284;7.226;2023-07-13T00:44:14;21.60;86.20
21950;DHT22;11139;51.284;7.226;2023-07-13T00:46:40;21.60;86.40
21950;DHT22;11139;51.284;7.226;2023-07-13T00:49:06;21.50;86.40
21950;DHT22;11139;51.284;7.226;2023-07-13T00:51:43;21.60;86.10
21950;DHT22;11139;51.284;7.226;2023-07-13T00:54:11;21.50;86.40
21950;DHT22;11139;51.284;7.226;2023-07-13T00:56:38;21.50;86.00
21950;DHT22;11139;51.284;7.226;2023-07-13T00:59:04;21.50;86.30
21950;DHT22;11139;51.284;7.226;2023-07-13T01:01:31;21.50;85.80
21950;DHT22;11139;51.284;7.226;2023-07-13T01:03:57;21.40;86.10
21950;DHT22;11139;51.284;7.226;2023-07-13T01:06:22;21.50;85.80
21950;DHT22;11139;51.284;7.226;2023-07-13T01:08:48;21.50;86.20
21950;DHT22;11139;51.284;7.226;2023-07-13T01:11:18;21.40;86.10
21950;DHT22;11139;51.284;7.226;2023-07-13T01:13:43;21.40;85.50
21950;DHT22;11139;51.284;7.226;2023-07-13T01:16:14;21.40;85.90
21950;DHT22;11139;51.284;7.226;2023-07-13T01:18:40;21.40;85.50
21950;DHT22;11139;51.284;7.226;2023-07-13T01:21:05;21.40;85.30
21950;DHT22;11139;51.284;7.226;2023-07-13T01:23:31;21.40;84.90
21950;DHT22;11139;51.284;7.226;2023-07-13T01:25:57;21.30;84.90
21950;DHT22;11139;51.284;7.226;2023-07-13T01:28:23;21.30;85.00
21950;DHT22;11139;51.284;7.226;2023-07-13T01:30:52;21.30;84.90
21950;DHT22;11139;51.284;7.226;2023-07-13T01:33:18;21.30;85.30
21950;DHT22;11139;51.284;7.226;2023-07-13T01:35:44;21.30;85.20
21950;DHT22;11139;51.284;7.226;2023-07-13T01:38:10;21.30;85.20
21950;DHT22;11139;51.284;7.226;2023-07-13T01:40:37;21.30;85.30
21950;DHT22;11139;51.284;7.226;2023-07-13T01:43:02;21.30;85.20
21950;DHT22;11139;51.284;7.226;2023-07-13T01:45:28;21.20;84.60
21950;DHT22;11139;51.284;7.226;2023-07-13T01:47:53;21.20;84.80
21950;DHT22;11139;51.284;7.226;2023-07-13T01:50:19;21.20;84.90
21950;DHT22;11139;51.284;7.226;2023-07-13T01:52:45;21.20;85.00
21950;DHT22;11139;51.284;7.226;2023-07-13T01:55:10;21.20;85.10
21950;DHT22;11139;51.284;7.226;2023-07-13T01:57:36;21.10;85.10
21950;DHT22;11139;51.284;7.226;2023-07-13T02:00:04;21.20;85.30
21950;DHT22;11139;51.284;7.226;2023-07-13T02:02:30;21.10;85.00
21950;DHT22;11139;51.284;7.226;2023-07-13T02:04:56;21.20;85.00
21950;DHT22;11139;51.284;7.226;2023-07-13T02:07:22;21.10;85.00
21950;DHT22;11139;51.284;7.226;2023-07-13T02:09:47;21.10;85.20
21950;DHT22;11139;51.284;7.226;2023-07-13T02:12:13;21.10;85.20
21950;DHT22;11139;51.284;7.226;2023-07-13T02:14:38;21.10;85.50
21950;DHT22;11139;51.284;7.226;2023-07-13T02:17:04;21.10;85.30
21950;DHT22;11139;51.284;7.226;2023-07-13T02:19:30;21.10;85.50
21950;DHT22;11139;51.284;7.226;2023-07-13T02:21:55;21.10;85.70
21950;DHT22;11139;51.284;7.226;2023-07-13T02:24:21;21.10;85.50
21950;DHT22;11139;51.284;7.226;2023-07-13T02:26:46;21.10;85.50
21950;DHT22;11139;51.284;7.226;2023-07-13T02:29:12;21.10;85.50
21950;DHT22;11139;51.284;7.226;2023-07-13T02:31:37;21.10;85.40
21950;DHT22;11139;51.284;7.226;2023-07-13T02:34:03;21.00;85.40
21950;DHT22;11139;51.284;7.226;2023-07-13T02:36:29;21.00;85.60
21950;DHT22;11139;51.284;7.226;2023-07-13T02:38:55;21.00;85.70
21950;DHT22;11139;51.284;7.226;2023-07-13T02:41:20;21.00;85.50
21950;DHT22;11139;51.284;7.226;2023-07-13T02:43:48;20.90;85.60
21950;DHT22;11139;51.284;7.226;2023-07-13T02:46:13;20.90;85.60
21950;DHT22;11139;51.284;7.226;2023-07-13T02:48:39;20.90;85.70
21950;DHT22;11139;51.284;7.226;2023-07-13T02:51:05;20.90;85.80
21950;DHT22;11139;51.284;7.226;2023-07-13T02:53:30;20.90;85.80
21950;DHT22;11139;51.284;7.226;2023-07-13T02:55:56;20.90;85.80
21950;DHT22;11139;51.284;7.226;2023-07-13T02:58:21;20.90;85.90
21950;DHT22;11139;51.284;7.226;2023-07-13T03:00:47;20.80;86.00
21950;DHT22;11139;51.284;7.226;2023-07-13T03:03:13;20.80;86.20
21950;DHT22;11139;51.284;7.226;2023-07-13T03:05:39;20.80;86.20
21950;DHT22;11139;51.284;7.226;2023-07-13T03:08:05;20.80;86.40
21950;DHT22;11139;51.284;7.226;2023-07-13T03:10:31;20.80;86.20
21950;DHT22;11139;51.284;7.226;2023-07-13T03:12:57;20.80;86.50
21950;DHT22;11139;51.284;7.226;2023-07-13T03:15:22;20.80;86.40
21950;DHT22;11139;51.284;7.226;2023-07-13T03:17:48;20.80;86.50
21950;DHT22;11139;51.284;7.226;2023-07-13T03:20:13;20.80;86.70
21950;DHT22;11139;51.284;7.226;2023-07-13T03:22:39;20.70;86.70
21950;DHT22;11139;51.284;7.226;2023-07-13T03:25:04;20.80;86.90
21950;DHT22;11139;51.284;7.226;2023-07-13T03:27:30;20.70;87.00
21950;DHT22;11139;51.284;7.226;2023-07-13T03:29:55;20.70;86.90
21950;DHT22;11139;51.284;7.226;2023-07-13T03:32:21;20.70;87.20
21950;DHT22;11139;51.284;7.226;2023-07-13T03:34:46;20.70;87.20
21950;DHT22;11139;51.284;7.226;2023-07-13T03:37:12;20.70;87.20
21950;DHT22;11139;51.284;7.226;2023-07-13T03:39:37;20.70;87.50
21950;DHT22;11139;51.284;7.226;2023-07-13T03:42:03;20.70;87.50
21950;DHT22;11139;51.284;7.226;2023-07-13T03:44:28;20.70;87.50
21950;DHT22;11139;51.284;7.226;2023-07-13T03:46:54;20.60;87.70
21950;DHT22;11139;51.284;7.226;2023-07-13T03:49:19;20.60;87.80
21950;DHT22;11139;51.284;7.226;2023-07-13T03:51:45;20.60;87.90
21950;DHT22;11139;51.284;7.226;2023-07-13T03:54:10;20.60;87.90
21950;DHT22;11139;51.284;7.226;2023-07-13T03:56:36;20.60;88.10
21950;DHT22;11139;51.284;7.226;2023-07-13T03:59:01;20.60;88.10
21950;DHT22;11139;51.284;7.226;2023-07-13T04:01:27;20.60;88.20
21950;DHT22;11139;51.284;7.226;2023-07-13T04:03:53;20.60;88.20
21950;DHT22;11139;51.284;7.226;2023-07-13T04:06:22;20.60;88.20
21950;DHT22;11139;51.284;7.226;2023-07-13T04:08:50;20.60;88.30
21950;DHT22;11139;51.284;7.226;2023-07-13T04:11:16;20.50;88.50
21950;DHT22;11139;51.284;7.226;2023-07-13T04:13:42;20.60;88.50
21950;DHT22;11139;51.284;7.226;2023-07-13T04:16:07;20.60;88.60
21950;DHT22;11139;51.284;7.226;2023-07-13T04:18:33;20.50;88.60
21950;DHT22;11139;51.284;7.226;2023-07-13T04:20:58;20.50;88.80
21950;DHT22;11139;51.284;7.226;2023-07-13T04:23:24;20.50;88.60
21950;DHT22;11139;51.284;7.226;2023-07-13T04:25:51;20.50;88.90
21950;DHT22;11139;51.284;7.226;2023-07-13T04:28:18;20.50;88.90
21950;DHT22;11139;51.284;7.226;2023-07-13T04:30:43;20.50;88.90
21950;DHT22;11139;51.284;7.226;2023-07-13T04:33:09;20.50;89.10
21950;DHT22;11139;51.284;7.226;2023-07-13T04:35:35;20.40;88.90
21950;DHT22;11139;51.284;7.226;2023-07-13T04:38:00;20.40;89.00
21950;DHT22;11139;51.284;7.226;2023-07-13T04:40:26;20.40;88.90
21950;DHT22;11139;51.284;7.226;2023-07-13T04:42:52;20.40;89.00
21950;DHT22;11139;51.284;7.226;2023-07-13T04:45:17;20.40;89.10
21950;DHT22;11139;51.284;7.226;2023-07-13T04:47:43;20.40;88.90
21950;DHT22;11139;51.284;7.226;2023-07-13T04:50:08;20.40;89.00
21950;DHT22;11139;51.284;7.226;2023-07-13T04:52:36;20.40;89.00
21950;DHT22;11139;51.284;7.226;2023-07-13T04:55:01;20.40;89.00
21950;DHT22;11139;51.284;7.226;2023-07-13T04:57:27;20.40;88.90
21950;DHT22;11139;51.284;7.226;2023-07-13T04:59:53;20.40;89.00
21950;DHT22;11139;51.284;7.226;2023-07-13T05:02:20;20.40;89.10
21950;DHT22;11139;51.284;7.226;2023-07-13T05:04:48;20.40;89.20
21950;DHT22;11139;51.284;7.226;2023-07-13T05:07:14;20.40;89.30
21950;DHT22;11139;51.284;7.226;2023-07-13T05:09:39;20.30;89.30
21950;DHT22;11139;51.284;7.226;2023-07-13T05:12:06;20.30;89.50
21950;DHT22;11139;51.284;7.226;2023-07-13T05:14:31;20.30;89.70
21950;DHT22;11139;51.284;7.226;2023-07-13T05:16:57;20.30;89.80
21950;DHT22;11139;51.284;7.226;2023-07-13T05:19:22;20.30;89.80
21950;DHT22;11139;51.284;7.226;2023-07-13T05:21:48;20.30;90.00
21950;DHT22;11139;51.284;7.226;2023-07-13T05:24:13;20.30;90.00
21950;DHT22;11139;51.284;7.226;2023-07-13T05:26:39;20.30;90.00
21950;DHT22;11139;51.284;7.226;2023-07-13T05:29:04;20.20;90.10
21950;DHT22;11139;51.284;7.226;2023-07-13T05:31:30;20.30;90.20
21950;DHT22;11139;51.284;7.226;2023-07-13T05:33:55;20.30;90.30
21950;DHT22;11139;51.284;7.226;2023-07-13T05:36:21;20.20;90.30
21950;DHT22;11139;51.284;7.226;2023-07-13T05:38:46;20.20;90.40
21950;DHT22;11139;51.284;7.226;2023-07-13T05:41:12;20.20;90.50
21950;DHT22;11139;51.284;7.226;2023-07-13T05:43:37;20.20;90.60
21950;DHT22;11139;51.284;7.226;2023-07-13T05:46:03;20.20;90.60
21950;DHT22;11139;51.284;7.226;2023-07-13T05:48:28;20.20;90.70
21950;DHT22;11139;51.284;7.226;2023-07-13T05:50:54;20.20;90.80
21950;DHT22;11139;51.284;7.226;2023-07-13T05:53:19;20.20;90.80
21950;DHT22;11139;51.284;7.226;2023-07-13T05:55:45;20.20;90.90
21950;DHT22;11139;51.284;7.226;2023-07-13T05:58:16;20.20;90.90
21950;DHT22;11139;51.284;7.226;2023-07-13T06:00:42;20.20;91.00
21950;DHT22;11139;51.284;7.226;2023-07-13T06:03:07;20.20;91.10
21950;DHT22;11139;51.284;7.226;2023-07-13T06:05:33;20.20;91.10
21950;DHT22;11139;51.284;7.226;2023-07-13T06:07:59;20.20;91.20
21950;DHT22;11139;51.284;7.226;2023-07-13T06:10:25;20.20;91.30
21950;DHT22;11139;51.284;7.226;2023-07-13T06:12:50;20.10;91.30
21950;DHT22;11139;51.284;7.226;2023-07-13T06:15:16;20.20;91.40
21950;DHT22;11139;51.284;7.226;2023-07-13T06:17:42;20.10;91.50
21950;DHT22;11139;51.284;7.226;2023-07-13T06:20:07;20.10;91.50
21950;DHT22;11139;51.284;7.226;2023-07-13T06:22:33;20.10;91.60
21950;DHT22;11139;51.284;7.226;2023-07-13T06:24:58;20.10;91.60
21950;DHT22;11139;51.284;7.226;2023-07-13T06:27:24;20.10;91.70
21950;DHT22;11139;51.284;7.226;2023-07-13T06:29:49;20.10;91.70
21950;DHT22;11139;51.284;7.226;2023-07-13T06:32:15;20.10;91.80
21950;DHT22;11139;51.284;7.226;2023-07-13T06:34:40;20.10;91.90
21950;DHT22;11139;51.284;7.226;2023-07-13T06:37:06;20.00;91.90
21950;DHT22;11139;51.284;7.226;2023-07-13T06:39:32;20.00;91.90
21950;DHT22;11139;51.284;7.226;2023-07-13T06:41:57;20.00;92.00
21950;DHT22;11139;51.284;7.226;2023-07-13T06:44:23;20.00;92.00
21950;DHT22;11139;51.284;7.226;2023-07-13T06:46:48;20.10;92.10
21950;DHT22;11139;51.284;7.226;2023-07-13T06:49:13;20.00;92.20
21950;DHT22;11139;51.284;7.226;2023-07-13T06:51:39;20.00;92.20
21950;DHT22;11139;51.284;7.226;2023-07-13T06:54:04;20.00;92.20
21950;DHT22;11139;51.284;7.226;2023-07-13T06:56:30;20.00;92.30
21950;DHT22;11139;51.284;7.226;2023-07-13T06:58:55;20.00;92.30
21950;DHT22;11139;51.284;7.226;2023-07-13T07:01:21;20.00;92.40
21950;DHT22;11139;51.284;7.226;2023-07-13T07:03:46;20.00;92.50
21950;DHT22;11139;51.284;7.226;2023-07-13T07:06:13;20.00;92.60
21950;DHT22;11139;51.284;7.226;2023-07-13T07:08:40;20.00;92.60
21950;DHT22;11139;51.284;7.226;2023-07-13T07:11:07;19.90;92.70
21950;DHT22;11139;51.284;7.226;2023-07-13T07:13:33;20.00;92.70
21950;DHT22;11139;51.284;7.226;2023-07-13T07:15:59;20.00;92.80
21950;DHT22;11139;51.284;7.226;2023-07-13T07:18:25;20.00;92.80
21950;DHT22;11139;51.284;7.226;2023-07-13T07:20:50;20.00;92.80
21950;DHT22;11139;51.284;7.226;2023-07-13T07:23:16;20.00;92.90
21950;DHT22;11139;51.284;7.226;2023-07-13T07:25:43;20.00;92.90
21950;DHT22;11139;51.284;7.226;2023-07-13T07:28:08;20.00;93.00
21950;DHT22;11139;51.284;7.226;2023-07-13T07:30:33;20.00;93.10
21950;DHT22;11139;51.284;7.226;2023-07-13T07:32:59;20.00;93.00
21950;DHT22;11139;51.284;7.226;2023-07-13T07:35:25;20.00;93.00
21950;DHT22;11139;51.284;7.226;2023-07-13T07:37:50;20.00;93.00
21950;DHT22;11139;51.284;7.226;2023-07-13T07:40:16;20.00;93.00
21950;DHT22;11139;51.284;7.226;2023-07-13T07:42:41;20.00;93.10
21950;DHT22;11139;51.284;7.226;2023-07-13T07:45:07;20.00;93.10
21950;DHT22;11139;51.284;7.226;2023-07-13T07:47:32;20.00;93.20
21950;DHT22;11139;51.284;7.226;2023-07-13T07:49:58;20.00;93.20
21950;DHT22;11139;51.284;7.226;2023-07-13T07:52:23;20.00;93.30
21950;DHT22;11139;51.284;7.226;2023-07-13T07:54:49;20.00;93.30
21950;DHT22;11139;51.284;7.226;2023-07-13T07:57:14;20.00;93.30
21950;DHT22;11139;51.284;7.226;2023-07-13T07:59:40;20.00;93.30
21950;DHT22;11139;51.284;7.226;2023-07-13T08:02:05;20.00;93.50
21950;DHT22;11139;51.284;7.226;2023-07-13T08:04:31;19.90;93.40
21950;DHT22;11139;51.284;7.226;2023-07-13T08:06:57;20.00;93.50
21950;DHT22;11139;51.284;7.226;2023-07-13T08:09:22;20.00;93.50
21950;DHT22;11139;51.284;7.226;2023-07-13T08:11:48;19.90;93.40
21950;DHT22;11139;51.284;7.226;2023-07-13T08:14:13;20.00;93.50
21950;DHT22;11139;51.284;7.226;2023-07-13T08:16:39;20.00;93.50
21950;DHT22;11139;51.284;7.226;2023-07-13T08:19:05;20.00;93.50
21950;DHT22;11139;51.284;7.226;2023-07-13T08:21:31;20.00;93.50
21950;DHT22;11139;51.284;7.226;2023-07-13T08:23:57;20.00;93.50
21950;DHT22;11139;51.284;7.226;2023-07-13T08:26:22;19.90;93.50
21950;DHT22;11139;51.284;7.226;2023-07-13T08:28:48;19.90;93.50
21950;DHT22;11139;51.284;7.226;2023-07-13T08:31:13;20.00;93.60
21950;DHT22;11139;51.284;7.226;2023-07-13T08:33:40;19.90;93.60
21950;DHT22;11139;51.284;7.226;2023-07-13T08:36:06;19.90;93.60
21950;DHT22;11139;51.284;7.226;2023-07-13T08:38:32;19.90;94.10
21950;DHT22;11139;51.284;7.226;2023-07-13T08:40:57;19.90;93.80
21950;DHT22;11139;51.284;7.226;2023-07-13T08:43:27;19.90;93.90
21950;DHT22;11139;51.284;7.226;2023-07-13T08:45:54;19.90;93.90
21950;DHT22;11139;51.284;7.226;2023-07-13T08:48:29;19.90;93.80
21950;DHT22;11139;51.284;7.226;2023-07-13T08:53:21;19.90;93.80
21950;DHT22;11139;51.284;7.226;2023-07-13T08:55:48;19.90;93.90
21950;DHT22;11139;51.284;7.226;2023-07-13T08:58:16;19.90;93.90
21950;DHT22;11139;51.284;7.226;2023-07-13T09:00:52;19.80;94.30
21950;DHT22;11139;51.284;7.226;2023-07-13T09:03:23;19.60;94.60
21950;DHT22;11139;51.284;7.226;2023-07-13T09:05:54;19.70;94.60
21950;DHT22;11139;51.284;7.226;2023-07-13T09:08:28;19.70;94.50
21950;DHT22;11139;51.284;7.226;2023-07-13T09:11:00;19.70;94.40
21950;DHT22;11139;51.284;7.226;2023-07-13T09:15:55;19.80;94.30
21950;DHT22;11139;51.284;7.226;2023-07-13T09:18:26;19.80;94.30
21950;DHT22;11139;51.284;7.226;2023-07-13T09:23:24;19.80;94.50
21950;DHT22;11139;51.284;7.226;2023-07-13T09:25:54;19.80;94.30
21950;DHT22;11139;51.284;7.226;2023-07-13T09:28:26;19.80;94.30
21950;DHT22;11139;51.284;7.226;2023-07-13T09:31:01;19.80;94.40
21950;DHT22;11139;51.284;7.226;2023-07-13T09:33:28;19.80;94.40
21950;DHT22;11139;51.284;7.226;2023-07-13T09:35:56;19.80;94.40
21950;DHT22;11139;51.284;7.226;2023-07-13T09:38:28;19.80;94.40
21950;DHT22;11139;51.284;7.226;2023-07-13T09:41:04;19.80;94.40
21950;DHT22;11139;51.284;7.226;2023-07-13T09:43:34;19.90;94.50
21950;DHT22;11139;51.284;7.226;2023-07-13T09:45:59;19.90;94.40
21950;DHT22;11139;51.284;7.226;2023-07-13T09:48:25;19.90;94.40
21950;DHT22;11139;51.284;7.226;2023-07-13T09:50:54;19.90;94.40
21950;DHT22;11139;51.284;7.226;2023-07-13T09:53:19;19.90;94.30
21950;DHT22;11139;51.284;7.226;2023-07-13T09:55:46;19.90;94.40
21950;DHT22;11139;51.284;7.226;2023-07-13T10:00:38;19.90;94.40
21950;DHT22;11139;51.284;7.226;2023-07-13T10:05:37;19.90;94.40
21950;DHT22;11139;51.284;7.226;2023-07-13T10:08:03;19.90;94.30
21950;DHT22;11139;51.284;7.226;2023-07-13T10:10:28;19.90;94.30
21950;DHT22;11139;51.284;7.226;2023-07-13T10:12:54;20.00;94.20
21950;DHT22;11139;51.284;7.226;2023-07-13T10:15:20;20.00;94.20
21950;DHT22;11139;51.284;7.226;2023-07-13T10:17:46;20.00;94.20
21950;DHT22;11139;51.284;7.226;2023-07-13T10:20:12;20.00;94.20
21950;DHT22;11139;51.284;7.226;2023-07-13T10:22:45;20.00;94.20
21950;DHT22;11139;51.284;7.226;2023-07-13T10:25:17;20.00;94.10
21950;DHT22;11139;51.284;7.226;2023-07-13T10:27:43;20.00;94.10
21950;DHT22;11139;51.284;7.226;2023-07-13T10:32:38;20.00;94.30
21950;DHT22;11139;51.284;7.226;2023-07-13T10:35:04;20.00;94.20
21950;DHT22;11139;51.284;7.226;2023-07-13T10:37:36;20.10;93.80
21950;DHT22;11139;51.284;7.226;2023-07-13T10:40:04;20.60;93.20
21950;DHT22;11139;51.284;7.226;2023-07-13T10:42:32;20.90;92.60
21950;DHT22;11139;51.284;7.226;2023-07-13T10:45:00;20.80;92.60
21950;DHT22;11139;51.284;7.226;2023-07-13T10:47:26;20.80;92.70
21950;DHT22;11139;51.284;7.226;2023-07-13T10:49:54;20.80;92.70
21950;DHT22;11139;51.284;7.226;2023-07-13T10:52:41;20.80;93.00
21950;DHT22;11139;51.284;7.226;2023-07-13T10:55:29;20.90;93.20
21950;DHT22;11139;51.284;7.226;2023-07-13T10:57:53;20.90;93.50
21950;DHT22;11139;51.284;7.226;2023-07-13T11:00:18;20.90;93.60
21950;DHT22;11139;51.284;7.226;2023-07-13T11:02:55;20.90;93.60
21950;DHT22;11139;51.284;7.226;2023-07-13T11:07:55;21.00;93.40
21950;DHT22;11139;51.284;7.226;2023-07-13T11:13:29;21.00;93.20
21950;DHT22;11139;51.284;7.226;2023-07-13T11:15:51;21.00;93.10
21950;DHT22;11139;51.284;7.226;2023-07-13T11:18:21;21.00;93.00
21950;DHT22;11139;51.284;7.226;2023-07-13T11:20:48;21.00;93.00
21950;DHT22;11139;51.284;7.226;2023-07-13T11:25:41;20.90;92.80
21950;DHT22;11139;51.284;7.226;2023-07-13T11:35:37;20.90;92.50
21950;DHT22;11139;51.284;7.226;2023-07-13T11:38:08;20.90;92.40
21950;DHT22;11139;51.284;7.226;2023-07-13T11:40:36;21.10;92.10
21950;DHT22;11139;51.284;7.226;2023-07-13T11:43:01;21.10;92.00
21950;DHT22;11139;51.284;7.226;2023-07-13T11:45:27;21.00;92.10
21950;DHT22;11139;51.284;7.226;2023-07-13T11:47:53;20.90;92.20
21950;DHT22;11139;51.284;7.226;2023-07-13T11:50:21;20.90;92.30
21950;DHT22;11139;51.284;7.226;2023-07-13T11:52:48;20.90;92.30
21950;DHT22;11139;51.284;7.226;2023-07-13T11:55:18;20.90;92.40
21950;DHT22;11139;51.284;7.226;2023-07-13T11:57:45;20.90;92.40
21950;DHT22;11139;51.284;7.226;2023-07-13T12:00:19;20.90;92.40
21950;DHT22;11139;51.284;7.226;2023-07-13T12:02:47;20.90;92.30
21950;DHT22;11139;51.284;7.226;2023-07-13T12:05:15;20.90;92.30
21950;DHT22;11139;51.284;7.226;2023-07-13T12:07:43;20.90;92.30
21950;DHT22;11139;51.284;7.226;2023-07-13T12:12:34;21.00;92.10
21950;DHT22;11139;51.284;7.226;2023-07-13T12:15:00;21.00;92.10
21950;DHT22;11139;51.284;7.226;2023-07-13T12:17:25;20.90;92.00
21950;DHT22;11139;51.284;7.226;2023-07-13T12:19:52;21.00;92.00
21950;DHT22;11139;51.284;7.226;2023-07-13T12:22:18;21.00;91.70
21950;DHT22;11139;51.284;7.226;2023-07-13T12:24:45;21.10;91.60
21950;DHT22;11139;51.284;7.226;2023-07-13T12:27:29;21.30;90.60
21950;DHT22;11139;51.284;7.226;2023-07-13T12:29:59;21.50;89.60
21950;DHT22;11139;51.284;7.226;2023-07-13T12:32:25;21.40;90.00
21950;DHT22;11139;51.284;7.226;2023-07-13T12:34:55;21.50;89.40
21950;DHT22;11139;51.284;7.226;2023-07-13T12:37:21;21.40;88.90
21950;DHT22;11139;51.284;7.226;2023-07-13T12:39:47;21.40;88.90
21950;DHT22;11139;51.284;7.226;2023-07-13T12:42:18;21.40;89.50
21950;DHT22;11139;51.284;7.226;2023-07-13T12:44:46;21.40;90.00
21950;DHT22;11139;51.284;7.226;2023-07-13T12:47:12;21.30;90.20
21950;DHT22;11139;51.284;7.226;2023-07-13T12:49:48;21.30;90.40
21950;DHT22;11139;51.284;7.226;2023-07-13T12:52:17;21.30;90.30
21950;DHT22;11139;51.284;7.226;2023-07-13T12:54:55;21.20;90.80
21950;DHT22;11139;51.284;7.226;2023-07-13T12:57:24;21.30;90.40
21950;DHT22;11139;51.284;7.226;2023-07-13T12:59:53;21.20;90.50
21950;DHT22;11139;51.284;7.226;2023-07-13T13:02:26;21.20;90.60
21950;DHT22;11139;51.284;7.226;2023-07-13T13:04:51;21.10;90.70
21950;DHT22;11139;51.284;7.226;2023-07-13T13:07:17;21.10;90.80
21950;DHT22;11139;51.284;7.226;2023-07-13T13:09:45;21.10;90.80
21950;DHT22;11139;51.284;7.226;2023-07-13T13:12:12;21.10;90.70
21950;DHT22;11139;51.284;7.226;2023-07-13T13:14:38;21.10;90.60
21950;DHT22;11139;51.284;7.226;2023-07-13T13:17:04;21.00;90.70
21950;DHT22;11139;51.284;7.226;2023-07-13T13:19:36;21.00;90.70
21950;DHT22;11139;51.284;7.226;2023-07-13T13:22:02;21.10;90.00
21950;DHT22;11139;51.284;7.226;2023-07-13T13:24:28;21.40;89.80
21950;DHT22;11139;51.284;7.226;2023-07-13T13:26:54;21.80;89.10
21950;DHT22;11139;51.284;7.226;2023-07-13T13:29:22;22.20;87.60
21950;DHT22;11139;51.284;7.226;2023-07-13T13:31:50;22.20;87.30
21950;DHT22;11139;51.284;7.226;2023-07-13T13:34:16;22.10;86.70
21950;DHT22;11139;51.284;7.226;2023-07-13T13:36:42;22.10;87.80
21950;DHT22;11139;51.284;7.226;2023-07-13T13:41:47;22.10;89.40
21950;DHT22;11139;51.284;7.226;2023-07-13T13:44:14;22.10;89.40
21950;DHT22;11139;51.284;7.226;2023-07-13T13:46:40;22.00;89.50
21950;DHT22;11139;51.284;7.226;2023-07-13T13:49:08;22.00;89.20
21950;DHT22;11139;51.284;7.226;2023-07-13T13:51:34;22.00;88.50
21950;DHT22;11139;51.284;7.226;2023-07-13T13:54:00;22.00;88.70
21950;DHT22;11139;51.284;7.226;2023-07-13T13:56:29;21.90;88.30
21950;DHT22;11139;51.284;7.226;2023-07-13T13:58:54;21.90;88.10
21950;DHT22;11139;51.284;7.226;2023-07-13T14:01:20;21.90;88.00
21950;DHT22;11139;51.284;7.226;2023-07-13T14:03:46;21.90;88.30
21950;DHT22;11139;51.284;7.226;2023-07-13T14:06:14;21.80;89.00
21950;DHT22;11139;51.284;7.226;2023-07-13T14:08:40;21.80;90.00
21950;DHT22;11139;51.284;7.226;2023-07-13T14:11:05;21.70;90.30
21950;DHT22;11139;51.284;7.226;2023-07-13T14:13:34;21.70;90.60
21950;DHT22;11139;51.284;7.226;2023-07-13T14:16:01;21.70;90.80
21950;DHT22;11139;51.284;7.226;2023-07-13T14:18:27;21.60;90.80
21950;DHT22;11139;51.284;7.226;2023-07-13T14:20:53;21.70;90.90
21950;DHT22;11139;51.284;7.226;2023-07-13T14:23:18;21.60;90.80
21950;DHT22;11139;51.284;7.226;2023-07-13T14:25:47;21.60;90.70
21950;DHT22;11139;51.284;7.226;2023-07-13T14:30:41;22.00;90.10
21950;DHT22;11139;51.284;7.226;2023-07-13T14:33:08;21.90;90.30
21950;DHT22;11139;51.284;7.226;2023-07-13T14:35:34;21.80;90.50
21950;DHT22;11139;51.284;7.226;2023-07-13T14:37:59;21.70;90.70
21950;DHT22;11139;51.284;7.226;2023-07-13T14:40:27;21.70;90.90
21950;DHT22;11139;51.284;7.226;2023-07-13T14:42:53;21.60;91.00
21950;DHT22;11139;51.284;7.226;2023-07-13T14:45:19;21.60;91.10
21950;DHT22;11139;51.284;7.226;2023-07-13T14:47:45;21.60;91.10
21950;DHT22;11139;51.284;7.226;2023-07-13T14:52:41;21.60;91.30
21950;DHT22;11139;51.284;7.226;2023-07-13T14:55:09;21.60;91.30
21950;DHT22;11139;51.284;7.226;2023-07-13T14:57:35;21.50;91.30
21950;DHT22;11139;51.284;7.226;2023-07-13T15:00:00;21.60;91.40
21950;DHT22;11139;51.284;7.226;2023-07-13T15:04:51;21.60;91.30
21950;DHT22;11139;51.284;7.226;2023-07-13T15:07:17;21.60;91.20
21950;DHT22;11139;51.284;7.226;2023-07-13T15:09:44;21.60;91.10
21950;DHT22;11139;51.284;7.226;2023-07-13T15:12:09;21.60;91.00
21950;DHT22;11139;51.284;7.226;2023-07-13T15:14:35;21.60;91.00
21950;DHT22;11139;51.284;7.226;2023-07-13T15:17:01;21.60;90.90
21950;DHT22;11139;51.284;7.226;2023-07-13T15:19:26;21.60;90.80
21950;DHT22;11139;51.284;7.226;2023-07-13T15:21:52;21.60;90.70
21950;DHT22;11139;51.284;7.226;2023-07-13T15:24:20;21.60;90.60
21950;DHT22;11139;51.284;7.226;2023-07-13T15:26:46;21.70;90.40
21950;DHT22;11139;51.284;7.226;2023-07-13T15:29:14;22.00;89.80
21950;DHT22;11139;51.284;7.226;2023-07-13T15:31:40;21.90;89.70
21950;DHT22;11139;51.284;7.226;2023-07-13T15:34:12;21.80;89.90
21950;DHT22;11139;51.284;7.226;2023-07-13T15:36:39;21.80;90.00
21950;DHT22;11139;51.284;7.226;2023-07-13T15:39:05;21.70;90.10
21950;DHT22;11139;51.284;7.226;2023-07-13T15:41:30;21.70;90.20
21950;DHT22;11139;51.284;7.226;2023-07-13T15:43:57;21.60;90.20
21950;DHT22;11139;51.284;7.226;2023-07-13T15:46:26;21.60;90.40
21950;DHT22;11139;51.284;7.226;2023-07-13T15:48:52;21.60;90.70
21950;DHT22;11139;51.284;7.226;2023-07-13T15:51:30;21.50;90.90
21950;DHT22;11139;51.284;7.226;2023-07-13T15:53:59;21.50;91.10
21950;DHT22;11139;51.284;7.226;2023-07-13T15:56:29;21.50;91.30
21950;DHT22;11139;51.284;7.226;2023-07-13T15:58:55;21.40;91.80
21950;DHT22;11139;51.284;7.226;2023-07-13T16:01:21;21.40;91.70
21950;DHT22;11139;51.284;7.226;2023-07-13T16:03:47;21.30;91.80
21950;DHT22;11139;51.284;7.226;2023-07-13T16:06:17;21.30;92.40
21950;DHT22;11139;51.284;7.226;2023-07-13T16:08:44;21.30;92.30